createdAt,value
2023-04-25T00:00:01.491Z,74.40
2023-04-25T00:02:29.925Z,74.43
2023-04-25T00:05:00.545Z,74.28
2023-04-25T00:07:28.872Z,73.82
2023-04-25T00:09:57.023Z,74.03
2023-04-25T00:12:26.469Z,74.34
2023-04-25T00:17:23.109Z,74.79
2023-04-25T00:19:51.285Z,74.70
2023-04-25T00:22:19.356Z,74.48
2023-04-25T00:24:47.497Z,74.14
2023-04-25T00:27:17.155Z,73.88
2023-04-25T00:29:46.741Z,73.87
2023-04-25T00:32:15.047Z,73.71
2023-04-25T00:34:44.746Z,73.72
2023-04-25T00:37:13.641Z,73.86
2023-04-25T00:39:42.995Z,73.73
2023-04-25T00:42:12.348Z,73.88
2023-04-25T00:44:41.572Z,73.80
2023-04-25T00:47:14.709Z,73.57
2023-04-25T00:49:42.910Z,73.84
2023-04-25T00:52:11.473Z,73.48
2023-04-25T00:54:40.073Z,73.80
2023-04-25T00:57:08.378Z,73.69
2023-04-25T00:59:38.401Z,73.58
2023-04-25T01:02:08.353Z,73.31
2023-04-25T01:04:38.353Z,72.81
2023-04-25T01:07:06.800Z,72.88
2023-04-25T01:09:35.160Z,73.34
2023-04-25T01:12:03.949Z,73.96
2023-04-25T01:14:32.397Z,73.82
2023-04-25T01:17:01.201Z,73.08
2023-04-25T01:19:29.568Z,72.58
2023-04-25T01:21:59.210Z,73.05
2023-04-25T01:24:27.911Z,73.08
2023-04-25T01:26:57.880Z,73.36
2023-04-25T01:29:27.084Z,73.43
2023-04-25T01:31:55.737Z,72.94
2023-04-25T01:34:24.034Z,72.73
2023-04-25T01:36:53.051Z,72.20
2023-04-25T01:39:23.014Z,73.04
2023-04-25T01:41:51.461Z,73.38
2023-04-25T01:44:19.936Z,73.21
2023-04-25T01:46:48.105Z,73.09
2023-04-25T01:49:16.458Z,73.45
2023-04-25T01:51:47.325Z,73.40
2023-04-25T01:54:15.893Z,74.10
2023-04-25T01:56:45.417Z,74.61
2023-04-25T01:59:14.027Z,74.82
2023-04-25T02:02:04.620Z,75.06
2023-04-25T02:04:34.797Z,74.53
2023-04-25T02:07:04.131Z,74.36
2023-04-25T02:09:58.455Z,74.53
2023-04-25T02:12:29.967Z,74.08
2023-04-25T02:15:21.894Z,74.08
2023-04-25T02:18:03.234Z,73.62
2023-04-25T02:20:32.583Z,72.96
2023-04-25T02:23:00.941Z,72.67
2023-04-25T02:25:30.275Z,72.15
2023-04-25T02:27:59.770Z,72.06
2023-04-25T02:30:27.972Z,71.60
2023-04-25T02:32:56.352Z,71.38
2023-04-25T02:35:24.698Z,71.37
2023-04-25T02:37:55.739Z,70.89
2023-04-25T02:40:23.901Z,70.69
2023-04-25T02:42:52.540Z,70.39
2023-04-25T02:45:23.411Z,70.13
2023-04-25T02:47:51.658Z,70.37
2023-04-25T02:50:22.218Z,70.77
2023-04-25T02:52:50.647Z,70.86
2023-04-25T02:55:26.239Z,70.61
2023-04-25T02:57:57.434Z,70.47
2023-04-25T03:00:47.253Z,70.59
2023-04-25T03:03:18.550Z,70.56
2023-04-25T03:05:47.862Z,70.56
2023-04-25T03:08:16.408Z,71.06
2023-04-25T03:10:45.864Z,71.16
2023-04-25T03:13:15.840Z,71.08
2023-04-25T03:15:46.590Z,71.02
2023-04-25T03:18:14.877Z,70.93
2023-04-25T03:20:43.859Z,71.13
2023-04-25T03:23:12.126Z,71.06
2023-04-25T03:25:43.878Z,70.68
2023-04-25T03:28:12.344Z,70.58
2023-04-25T03:30:40.492Z,70.17
2023-04-25T03:33:10.086Z,70.13
2023-04-25T03:35:38.323Z,69.92
2023-04-25T03:38:06.351Z,70.37
2023-04-25T03:40:40.536Z,70.90
2023-04-25T03:43:28.988Z,70.87
2023-04-25T03:46:08.057Z,71.64
2023-04-25T03:48:38.764Z,71.48
2023-04-25T03:51:07.005Z,71.66
2023-04-25T03:53:38.250Z,71.31
2023-04-25T03:56:21.863Z,71.03
2023-04-25T03:58:56.217Z,70.06
2023-04-25T04:01:27.258Z,69.07
2023-04-25T04:03:57.153Z,67.21
2023-04-25T04:06:26.921Z,66.36
2023-04-25T04:09:02.685Z,66.20
2023-04-25T04:11:33.407Z,65.61
2023-04-25T04:14:01.561Z,65.54
2023-04-25T04:16:30.982Z,65.55
2023-04-25T04:19:02.164Z,65.39
2023-04-25T04:21:31.327Z,64.73
2023-04-25T04:24:02.270Z,64.80
2023-04-25T04:26:35.356Z,65.42
2023-04-25T04:29:11.686Z,64.50
2023-04-25T04:32:02.083Z,64.80
2023-04-25T04:34:32.838Z,64.54
2023-04-25T04:37:01.358Z,64.69
2023-04-25T04:39:29.866Z,64.16
2023-04-25T04:42:22.237Z,64.50
2023-04-25T04:45:02.642Z,64.99
2023-04-25T04:47:57.319Z,66.75
2023-04-25T04:50:50.311Z,66.46
2023-04-25T04:53:47.443Z,66.31
2023-04-25T04:56:42.905Z,65.91
2023-04-25T04:59:27.629Z,66.05
2023-04-25T05:02:11.222Z,66.12
2023-04-25T05:05:05.342Z,66.30
2023-04-25T05:07:53.613Z,65.63
2023-04-25T05:10:42.962Z,65.21
2023-04-25T05:13:30.030Z,65.21
2023-04-25T05:15:58.190Z,64.87
2023-04-25T05:18:37.806Z,64.86
2023-04-25T05:21:26.407Z,64.87
2023-04-25T05:24:28.221Z,64.50
2023-04-25T05:27:19.477Z,65.13
2023-04-25T05:30:08.050Z,65.35
2023-04-25T05:32:48.528Z,65.88
2023-04-25T05:35:19.908Z,65.28
2023-04-25T05:37:50.087Z,65.02
2023-04-25T05:40:19.737Z,65.35
2023-04-25T05:43:06.529Z,64.90
2023-04-25T05:45:45.592Z,65.04
2023-04-25T05:48:31.095Z,64.26
2023-04-25T05:51:10.611Z,64.23
2023-04-25T05:54:02.063Z,64.42
2023-04-25T05:56:31.560Z,64.43
2023-04-25T05:58:59.789Z,65.15
2023-04-25T06:01:27.903Z,64.85
2023-04-25T06:03:56.419Z,65.62
2023-04-25T06:06:24.975Z,65.52
2023-04-25T06:08:53.081Z,66.13
2023-04-25T06:11:21.371Z,66.42
2023-04-25T06:13:51.359Z,65.32
2023-04-25T06:16:19.788Z,63.53
2023-04-25T06:18:48.071Z,64.92
2023-04-25T06:21:17.248Z,64.52
2023-04-25T06:23:45.875Z,64.06
2023-04-25T06:26:21.011Z,63.69
2023-04-25T06:28:51.120Z,63.75
2023-04-25T06:31:19.317Z,64.48
2023-04-25T06:33:49.423Z,63.11
2023-04-25T06:36:17.767Z,64.94
2023-04-25T06:38:49.251Z,64.99
2023-04-25T06:41:17.602Z,64.91
2023-04-25T06:43:45.945Z,65.44
2023-04-25T06:46:27.518Z,65.71
2023-04-25T06:48:57.082Z,64.66
2023-04-25T06:51:25.422Z,64.69
2023-04-25T06:53:57.005Z,64.44
2023-04-25T06:56:31.982Z,64.21
2023-04-25T06:59:07.817Z,64.21
2023-04-25T07:01:39.985Z,64.16
2023-04-25T07:04:12.931Z,64.62
2023-04-25T07:06:48.506Z,64.45
2023-04-25T07:09:19.192Z,62.44
2023-04-25T07:11:49.239Z,63.31
2023-04-25T07:14:17.561Z,61.96
2023-04-25T07:16:48.159Z,61.68
2023-04-25T07:19:16.519Z,63.50
2023-04-25T07:21:45.472Z,62.83
2023-04-25T07:24:15.350Z,62.30
2023-04-25T07:26:47.553Z,60.62
2023-04-25T07:29:32.509Z,61.77
2023-04-25T07:32:03.569Z,61.04
2023-04-25T07:34:33.017Z,60.20
2023-04-25T07:37:01.662Z,59.78
2023-04-25T07:39:38.027Z,59.89
2023-04-25T07:42:08.973Z,57.85
2023-04-25T07:44:39.974Z,56.33
2023-04-25T07:47:11.656Z,57.17
2023-04-25T07:49:40.042Z,56.31
2023-04-25T07:52:08.703Z,55.81
2023-04-25T07:54:39.374Z,55.44
2023-04-25T07:57:15.900Z,54.76
2023-04-25T07:59:46.078Z,54.93
2023-04-25T08:02:16.405Z,53.32
2023-04-25T08:04:44.681Z,53.90
2023-04-25T08:07:14.667Z,54.03
2023-04-25T08:09:54.871Z,54.37
2023-04-25T08:12:30.506Z,53.55
2023-04-25T08:14:58.767Z,53.61
2023-04-25T08:17:33.961Z,54.42
2023-04-25T08:20:07.251Z,54.30
2023-04-25T08:22:36.047Z,53.15
2023-04-25T08:25:18.496Z,52.83
2023-04-25T08:27:46.590Z,53.30
2023-04-25T08:30:17.515Z,51.31
2023-04-25T08:32:49.977Z,52.77
2023-04-25T08:35:28.005Z,53.59
2023-04-25T08:37:56.405Z,49.49
2023-04-25T08:40:31.193Z,50.63
2023-04-25T08:43:05.451Z,48.98
2023-04-25T08:45:35.345Z,49.08
2023-04-25T08:48:07.613Z,49.38
2023-04-25T08:50:40.622Z,49.37
2023-04-25T08:53:17.465Z,48.77
2023-04-25T08:55:47.212Z,48.32
2023-04-25T08:58:17.283Z,49.10
2023-04-25T09:00:48.309Z,49.37
2023-04-25T09:03:18.874Z,49.91
2023-04-25T09:05:51.290Z,49.40
2023-04-25T09:08:19.694Z,48.97
2023-04-25T09:10:48.084Z,50.23
2023-04-25T09:13:25.816Z,47.16
2023-04-25T09:16:23.232Z,46.25
2023-04-25T09:19:38.279Z,45.49
2023-04-25T09:22:13.282Z,46.89
2023-04-25T09:24:44.531Z,46.64
2023-04-25T09:27:15.081Z,47.40
2023-04-25T09:29:44.088Z,47.89
2023-04-25T09:32:21.595Z,48.15
2023-04-25T09:34:55.850Z,47.82
2023-04-25T09:37:26.958Z,46.99
2023-04-25T09:40:14.578Z,46.22
2023-04-25T09:42:54.593Z,45.44
2023-04-25T09:45:23.465Z,46.27
2023-04-25T09:47:52.411Z,45.66
2023-04-25T09:50:27.371Z,43.49
2023-04-25T09:53:06.582Z,43.50
2023-04-25T09:55:55.050Z,42.77
2023-04-25T09:58:25.594Z,41.99
2023-04-25T10:00:54.535Z,43.66
2023-04-25T10:03:36.809Z,43.58
2023-04-25T10:06:27.675Z,42.54
2023-04-25T10:08:56.925Z,42.96
2023-04-25T10:11:28.242Z,44.84
2023-04-25T10:13:57.831Z,45.16
2023-04-25T10:16:27.540Z,45.48
2023-04-25T10:18:55.756Z,45.87
2023-04-25T10:21:27.962Z,46.70
2023-04-25T10:23:56.647Z,44.70
2023-04-25T10:26:25.609Z,44.72
2023-04-25T10:28:58.673Z,43.47
2023-04-25T10:31:27.242Z,43.30
2023-04-25T10:33:55.859Z,44.22
2023-04-25T10:36:28.226Z,45.72
2023-04-25T10:38:56.429Z,52.56
2023-04-25T10:41:24.899Z,55.06
2023-04-25T10:44:02.313Z,54.82
2023-04-25T10:46:32.257Z,54.86
2023-04-25T10:49:02.587Z,53.94
2023-04-25T10:51:51.396Z,52.57
2023-04-25T10:54:27.047Z,53.51
2023-04-25T10:56:55.222Z,52.13
2023-04-25T10:59:29.748Z,50.16
2023-04-25T11:01:58.686Z,49.82
2023-04-25T11:04:31.805Z,49.83
2023-04-25T11:07:12.858Z,49.53
2023-04-25T11:09:42.821Z,50.43
2023-04-25T11:12:12.992Z,50.67
2023-04-25T11:17:16.290Z,51.97
2023-04-25T11:19:44.991Z,49.57
2023-04-25T11:22:14.654Z,45.60
2023-04-25T11:24:43.754Z,44.53
2023-04-25T11:27:12.247Z,45.77
2023-04-25T11:29:40.615Z,43.85
2023-04-25T11:32:09.678Z,43.59
2023-04-25T11:34:37.881Z,43.61
2023-04-25T11:37:07.163Z,44.76
2023-04-25T11:39:36.912Z,45.17
2023-04-25T11:42:12.149Z,47.82
2023-04-25T11:44:42.759Z,47.43
2023-04-25T11:47:10.942Z,48.68
2023-04-25T11:49:39.171Z,48.12
2023-04-25T11:52:09.515Z,47.16
2023-04-25T11:54:39.993Z,47.29
2023-04-25T11:57:08.176Z,48.64
2023-04-25T11:59:36.406Z,47.72
2023-04-25T12:02:04.610Z,47.19
2023-04-25T12:04:34.432Z,44.49
2023-04-25T12:07:03.609Z,43.80
2023-04-25T12:09:33.765Z,42.33
2023-04-25T12:12:04.895Z,44.12
2023-04-25T12:14:35.834Z,43.96
2023-04-25T12:17:08.905Z,42.74
2023-04-25T12:19:41.678Z,43.94
2023-04-25T12:22:23.339Z,45.60
2023-04-25T12:24:54.303Z,46.46
2023-04-25T12:27:23.797Z,43.73
2023-04-25T12:29:57.313Z,44.69
2023-04-25T12:32:26.081Z,45.38
2023-04-25T12:34:54.289Z,45.68
2023-04-25T12:37:22.573Z,45.55
2023-04-25T12:39:50.758Z,46.79
2023-04-25T12:42:18.910Z,46.07
2023-04-25T12:44:48.778Z,44.74
2023-04-25T12:47:17.043Z,44.45
2023-04-25T12:49:45.275Z,44.44
2023-04-25T12:52:13.352Z,45.62
2023-04-25T12:54:41.579Z,44.33
2023-04-25T12:57:09.858Z,42.94
2023-04-25T12:59:38.109Z,45.74
2023-04-25T13:02:07.675Z,43.75
2023-04-25T13:04:35.995Z,44.18
2023-04-25T13:07:04.555Z,42.69
2023-04-25T13:09:32.864Z,43.45
2023-04-25T13:12:01.050Z,42.38
2023-04-25T13:14:29.145Z,41.95
2023-04-25T13:16:57.470Z,43.62
2023-04-25T13:19:27.207Z,44.52
2023-04-25T13:21:55.508Z,40.93
2023-04-25T13:24:23.718Z,42.09
2023-04-25T13:26:53.529Z,42.68
2023-04-25T13:29:21.682Z,41.73
2023-04-25T13:31:49.891Z,40.32
2023-04-25T13:34:18.056Z,40.94
2023-04-25T13:36:47.649Z,42.19
2023-04-25T13:39:15.785Z,43.36
2023-04-25T13:41:43.913Z,43.79
2023-04-25T13:44:12.366Z,43.63
2023-04-25T13:46:46.979Z,42.54
2023-04-25T13:49:16.502Z,40.02
2023-04-25T13:51:44.693Z,41.94
2023-04-25T13:54:14.220Z,43.26
2023-04-25T13:56:43.434Z,41.84
2023-04-25T13:59:12.338Z,41.79
2023-04-25T14:01:40.580Z,41.32
2023-04-25T14:04:08.721Z,42.39
2023-04-25T14:06:36.815Z,41.57
2023-04-25T14:09:05.657Z,41.01
2023-04-25T14:11:35.193Z,41.14
2023-04-25T14:14:03.642Z,41.08
2023-04-25T14:16:32.360Z,41.90
2023-04-25T14:19:01.244Z,42.02
2023-04-25T14:21:30.205Z,42.46
2023-04-25T14:23:58.290Z,43.40
2023-04-25T14:26:26.698Z,44.27
2023-04-25T14:28:56.199Z,42.77
2023-04-25T14:31:24.374Z,43.37
2023-04-25T14:33:52.776Z,44.08
2023-04-25T14:36:21.675Z,42.96
2023-04-25T14:38:49.802Z,44.02
2023-04-25T14:41:17.975Z,43.85
2023-04-25T14:43:46.279Z,43.53
2023-04-25T14:46:15.819Z,47.58
2023-04-25T14:48:44.512Z,48.37
2023-04-25T14:51:12.735Z,50.19
2023-04-25T14:53:41.877Z,50.31
2023-04-25T14:56:10.565Z,51.41
2023-04-25T14:58:39.817Z,52.12
2023-04-25T15:01:09.238Z,51.33
2023-04-25T15:03:38.993Z,50.14
2023-04-25T15:06:08.376Z,48.78
2023-04-25T15:08:37.026Z,49.76
2023-04-25T15:11:05.903Z,49.52
2023-04-25T15:13:35.803Z,48.81
2023-04-25T15:16:04.095Z,48.19
2023-04-25T15:18:32.371Z,46.14
2023-04-25T15:21:05.380Z,46.32
2023-04-25T15:23:33.749Z,46.07
2023-04-25T15:26:01.903Z,46.01
2023-04-25T15:28:30.265Z,45.83
2023-04-25T15:30:58.909Z,44.57
2023-04-25T15:33:27.592Z,42.21
2023-04-25T15:35:57.497Z,42.60
2023-04-25T15:38:30.162Z,43.96
2023-04-25T15:41:00.359Z,44.21
2023-04-25T15:43:28.559Z,44.78
2023-04-25T15:45:56.923Z,44.84
2023-04-25T15:48:25.366Z,46.18
2023-04-25T15:50:53.697Z,46.82
2023-04-25T15:53:22.002Z,46.66
2023-04-25T15:55:51.701Z,46.20
2023-04-25T15:58:19.874Z,45.21
2023-04-25T16:00:48.978Z,46.63
2023-04-25T16:03:17.659Z,43.88
2023-04-25T16:05:46.036Z,44.19
2023-04-25T16:08:14.238Z,42.92
2023-04-25T16:10:43.021Z,43.73
2023-04-25T16:13:12.948Z,43.75
2023-04-25T16:15:41.169Z,42.90
2023-04-25T16:18:09.567Z,43.65
2023-04-25T16:20:37.752Z,44.08
2023-04-25T16:23:05.856Z,44.56
2023-04-25T16:25:33.986Z,45.12
2023-04-25T16:28:02.348Z,46.33
2023-04-25T16:30:31.941Z,47.00
2023-04-25T16:33:01.782Z,47.69
2023-04-25T16:35:32.379Z,47.88
2023-04-25T16:38:01.036Z,48.74
2023-04-25T16:40:29.394Z,48.09
2023-04-25T16:42:57.731Z,48.15
2023-04-25T16:45:26.254Z,47.99
2023-04-25T16:47:56.005Z,46.92
2023-04-25T16:50:24.334Z,46.15
2023-04-25T16:52:52.746Z,46.69
2023-04-25T16:55:21.410Z,47.93
2023-04-25T16:57:49.618Z,46.86
2023-04-25T17:00:19.636Z,46.40
2023-04-25T17:02:48.014Z,45.89
2023-04-25T17:05:17.684Z,46.43
2023-04-25T17:07:46.027Z,46.26
2023-04-25T17:10:14.162Z,45.99
2023-04-25T17:12:42.344Z,46.08
2023-04-25T17:15:11.933Z,47.10
2023-04-25T17:17:40.241Z,46.88
2023-04-25T17:20:10.904Z,46.88
2023-04-25T17:22:44.690Z,47.30
2023-04-25T17:25:12.905Z,47.29
2023-04-25T17:27:41.016Z,47.94
2023-04-25T17:30:10.336Z,48.81
2023-04-25T17:32:38.459Z,49.24
2023-04-25T17:35:07.607Z,49.53
2023-04-25T17:37:36.067Z,48.46
2023-04-25T17:40:10.827Z,48.74
2023-04-25T17:42:39.411Z,48.80
2023-04-25T17:45:09.499Z,49.17
2023-04-25T17:47:37.727Z,50.27
2023-04-25T17:50:07.351Z,51.18
2023-04-25T17:52:35.590Z,51.18
2023-04-25T17:55:06.289Z,52.17
2023-04-25T17:57:34.460Z,52.08
2023-04-25T18:00:05.779Z,52.15
2023-04-25T18:02:40.609Z,52.68
2023-04-25T18:05:10.939Z,52.00
2023-04-25T18:07:39.449Z,51.84
2023-04-25T18:10:11.845Z,51.50
2023-04-25T18:12:40.161Z,51.92
2023-04-25T18:15:10.713Z,52.03
2023-04-25T18:17:40.854Z,51.71
2023-04-25T18:20:15.136Z,51.51
2023-04-25T18:22:46.721Z,52.12
2023-04-25T18:25:18.410Z,52.41
2023-04-25T18:27:46.853Z,51.85
2023-04-25T18:30:15.472Z,51.88
2023-04-25T18:32:43.662Z,52.58
2023-04-25T18:35:15.088Z,52.86
2023-04-25T18:37:43.352Z,52.78
2023-04-25T18:40:14.132Z,53.28
2023-04-25T18:42:43.985Z,53.87
2023-04-25T18:45:12.990Z,54.56
2023-04-25T18:47:41.391Z,54.59
2023-04-25T18:50:10.912Z,55.36
2023-04-25T18:52:39.052Z,56.08
2023-04-25T18:55:08.413Z,56.47
2023-04-25T18:57:36.645Z,56.66
2023-04-25T19:00:08.641Z,57.41
2023-04-25T19:02:38.018Z,57.71
2023-04-25T19:05:07.446Z,57.88
2023-04-25T19:07:35.563Z,57.52
2023-04-25T19:10:04.682Z,58.01
2023-04-25T19:12:34.245Z,57.65
2023-04-25T19:15:02.749Z,58.67
2023-04-25T19:17:32.479Z,58.64
2023-04-25T19:20:01.222Z,58.76
2023-04-25T19:22:29.856Z,58.96
2023-04-25T19:25:09.016Z,59.76
2023-04-25T19:27:38.553Z,59.37
2023-04-25T19:30:11.067Z,60.23
2023-04-25T19:32:40.698Z,60.77
2023-04-25T19:35:11.816Z,61.00
2023-04-25T19:37:45.959Z,60.85
2023-04-25T19:40:16.132Z,61.00
2023-04-25T19:42:44.390Z,61.47
2023-04-25T19:45:13.596Z,61.46
2023-04-25T19:47:43.804Z,61.06
2023-04-25T19:50:12.941Z,60.82
2023-04-25T19:52:41.763Z,60.45
2023-04-25T19:55:11.427Z,60.63
2023-04-25T19:57:39.731Z,60.25
2023-04-25T20:00:12.940Z,60.61
2023-04-25T20:02:45.435Z,60.35
2023-04-25T20:05:16.622Z,60.60
2023-04-25T20:07:47.367Z,60.74
2023-04-25T20:10:16.609Z,60.20
2023-04-25T20:12:46.267Z,60.20
2023-04-25T20:15:14.618Z,59.80
2023-04-25T20:17:45.809Z,60.53
2023-04-25T20:20:14.294Z,61.01
2023-04-25T20:22:42.491Z,61.16
2023-04-25T20:25:12.297Z,61.31
2023-04-25T20:27:40.845Z,60.24
2023-04-25T20:30:12.123Z,60.82
2023-04-25T20:32:50.069Z,61.24
2023-04-25T20:35:18.359Z,61.06
2023-04-25T20:37:46.583Z,61.41
2023-04-25T20:40:14.906Z,60.62
2023-04-25T20:42:46.141Z,60.80
2023-04-25T20:45:16.586Z,60.87
2023-04-25T20:47:46.634Z,61.16
2023-04-25T20:50:14.952Z,61.29
2023-04-25T20:52:46.102Z,61.52
2023-04-25T20:55:14.269Z,62.01
2023-04-25T20:57:42.414Z,61.86
2023-04-25T21:00:17.838Z,61.98
2023-04-25T21:02:47.841Z,62.37
2023-04-25T21:05:16.140Z,62.46
2023-04-25T21:07:45.551Z,62.96
2023-04-25T21:10:15.541Z,62.56
2023-04-25T21:12:47.600Z,63.30
2023-04-25T21:15:17.738Z,63.22
2023-04-25T21:17:48.198Z,63.46
2023-04-25T21:20:17.883Z,63.29
2023-04-25T21:22:50.394Z,63.31
2023-04-25T21:25:24.133Z,63.93
2023-04-25T21:27:53.543Z,63.66
2023-04-25T21:30:24.274Z,64.60
2023-04-25T21:32:54.423Z,65.15
2023-04-25T21:35:25.816Z,65.55
2023-04-25T21:37:54.053Z,66.50
2023-04-25T21:40:22.562Z,66.90
2023-04-25T21:42:51.838Z,67.08
2023-04-25T21:45:22.152Z,66.42
2023-04-25T21:47:50.692Z,66.63
2023-04-25T21:50:20.865Z,66.85
2023-04-25T21:52:49.215Z,66.61
2023-04-25T21:55:17.585Z,66.39
2023-04-25T21:57:46.525Z,66.84
2023-04-25T22:00:21.918Z,67.16
2023-04-25T22:02:51.034Z,67.63
2023-04-25T22:05:22.578Z,67.27
2023-04-25T22:07:55.092Z,67.72
2023-04-25T22:10:24.077Z,67.87
2023-04-25T22:12:52.388Z,67.64
2023-04-25T22:15:23.458Z,67.80
2023-04-25T22:17:52.674Z,69.08
2023-04-25T22:20:26.111Z,69.52
2023-04-25T22:22:55.626Z,69.02
2023-04-25T22:25:23.990Z,69.32
2023-04-25T22:27:55.353Z,69.71
2023-04-25T22:30:23.759Z,70.03
2023-04-25T22:32:52.082Z,70.95
2023-04-25T22:35:21.693Z,71.44
2023-04-25T22:37:50.233Z,71.21
2023-04-25T22:40:18.492Z,71.38
2023-04-25T22:42:46.731Z,71.33
2023-04-25T22:45:16.022Z,70.67
2023-04-25T22:47:44.291Z,70.47
2023-04-25T22:50:16.651Z,70.63
2023-04-25T22:52:47.980Z,70.61
2023-04-25T22:55:16.393Z,71.02
2023-04-25T22:57:44.577Z,70.64
2023-04-25T23:00:19.666Z,70.70
2023-04-25T23:02:48.646Z,70.25
2023-04-25T23:05:17.166Z,71.40
2023-04-25T23:07:46.585Z,71.60
2023-04-25T23:10:14.971Z,70.88
2023-04-25T23:12:43.910Z,70.81
2023-04-25T23:15:13.433Z,71.08
2023-04-25T23:17:42.112Z,71.95
2023-04-25T23:20:12.068Z,71.44
2023-04-25T23:22:40.810Z,71.69
2023-04-25T23:25:16.930Z,71.16
2023-04-25T23:27:45.323Z,71.95
2023-04-25T23:30:15.273Z,71.98
2023-04-25T23:32:43.677Z,71.76
2023-04-25T23:35:12.288Z,71.40
2023-04-25T23:37:48.990Z,71.56
2023-04-25T23:40:18.624Z,71.86
2023-04-25T23:42:47.475Z,71.62
2023-04-25T23:45:16.652Z,71.06
2023-04-25T23:47:45.064Z,70.99
2023-04-25T23:50:13.772Z,70.92
2023-04-25T23:52:41.949Z,70.36
2023-04-25T23:55:10.748Z,70.77
2023-04-25T23:57:44.183Z,70.18
